Etusivu
METAR-TAF:

METAR-TAF

Lentoasemat :

Abu Simbel, Egypti

Leveyspiiri: 22-22-33N, Pituuspiiri: 31-36-42E, korkeus merenpinnasta: 188 m

Tämänhetkinen sää

Tämä raportti tehtiin 31 minuuttia sitten, kello 13.00 UTC
Tuuli 8 kn idästä
Lämpötila 37°C
Kosteus 11%
Ilmanpaine 1007 hPa
Näkyvyys 10 km tai enemmän
ei pilviä alle 1500 m:ssä eikä cumulonimbus-pilviä

METAR: HEBL 191300Z 10008KT CAVOK 37/02 Q1007 NOSIG

Aika: 15:31 (13:31 UTC)

Sääennuste

Tämä raportti tehtiin 2 tuntia ja 31 minuuttia sitten, kello 11.00 UTC
Ennuste voimassa 19. päivästä klo 12 UTC - 20. päivään klo 18 UTC
Tuuli 15 kn idästä/koillisesta
Näkyvyys 10 km tai enemmän
ei pilviä alle 1500 m:ssä eikä cumulonimbus-pilviä

TAF: HEBL 191100Z 1912/2018 06015KT CAVOK

Säähavainnot ja -ennusteet yli 4000 lentoasemalta (METAR- ja TAF-raportit).

Käytössä olevat sääasemat on merkitty karttaan keltaisilla ja punaisilla pisteillä.

Aseta hiiri pisteen päälle nähdäksesi sääaseman nimen.

Klikkaa sitten nähdäksesi säähavainnot ja -ennusteet.

Kartan vaihtaminen: klikkaa mustalla rastilla varustettuja vihreitä pisteitä, niin voit zoomata sisään; viivalla varustettua vihreää pistettä, niin voit zoomata ulos tai vihreitä nuolia, niin pääset viereisille kartoille.


METAR-TAF: